Time;durP1;ratioP1;P1;durP2;ratioP2;P2;SDS_P1;SDS_P2;PMS_P1;PMS_P2;Temp;Humidity;BMP_temperature;BMP_pressure;BME280_temperature;BME280_humidity;BME280_pressure;Samples;Min_cycle;Max_cycle;Signal;HPM_P1;HPM_P2
2023/03/25 00:02:20;;;;;;;;;;;9.70;99.90;;;;;;5131869;27;19907;-68
2023/03/25 00:04:50;;;;;;;;;;;9.70;99.90;;;;;;5131155;27;19911;-67
2023/03/25 00:07:17;;;;;;;;;;;9.80;99.90;;;;;;5116692;27;19938;-68
2023/03/25 00:09:43;;;;;;;;;;;9.80;99.90;;;;;;5124542;27;20006;-68
2023/03/25 00:12:09;;;;;;;;;;;9.80;99.90;;;;;;5103427;27;20098;-68
2023/03/25 00:14:34;;;;;;;;;;;9.80;99.90;;;;;;5131309;27;19963;-67
2023/03/25 00:17:00;;;;;;;;;;;9.80;99.90;;;;;;5123871;27;20014;-68
2023/03/25 00:19:26;;;;;;;;;;;9.80;99.90;;;;;;5121356;27;19911;-67
2023/03/25 00:21:52;;;;;;;;;;;9.80;99.90;;;;;;5124751;27;19911;-67
2023/03/25 00:24:18;;;;;;;;;;;9.90;99.90;;;;;;5121909;27;19918;-67
2023/03/25 00:26:44;;;;;;;;;;;9.90;99.90;;;;;;5129784;27;19916;-68
2023/03/25 00:29:10;;;;;;;;;;;9.90;99.90;;;;;;5130510;27;20350;-69
2023/03/25 00:31:36;;;;;;;;;;;9.90;99.90;;;;;;5120234;27;19911;-68
2023/03/25 00:34:02;;;;;;;;;;;9.90;99.90;;;;;;5127369;27;19911;-68
2023/03/25 00:36:28;;;;;;;;;;;10.00;99.90;;;;;;5127540;27;20260;-69
2023/03/25 00:38:54;;;;;;;;;;;10.00;99.90;;;;;;5127951;27;19962;-69
2023/03/25 00:41:26;;;;;;;;;;;9.90;99.90;;;;;;5128892;27;19973;-69
2023/03/25 00:43:56;;;;;;;;;;;10.00;99.90;;;;;;5128339;27;20323;-69
2023/03/25 00:46:22;;;;;;;;;;;10.00;99.90;;;;;;5123988;27;19911;-68
2023/03/25 00:48:49;;;;;;;;;;;10.00;99.90;;;;;;5125308;27;19912;-68
2023/03/25 00:51:18;;;;;;;;;;;9.90;99.90;;;;;;5121746;27;19916;-68
2023/03/25 00:53:44;;;;;;;;;;;9.90;99.90;;;;;;5126990;27;19911;-69
2023/03/25 00:56:11;;;;;;;;;;;9.90;99.90;;;;;;5129596;27;19926;-68
2023/03/25 00:58:37;;;;;;;;;;;9.90;99.90;;;;;;5120431;27;19955;-68
2023/03/25 01:01:12;;;;;;;;;;;9.90;99.90;;;;;;5126519;27;19919;-67
2023/03/25 01:03:39;;;;;;;;;;;9.90;99.90;;;;;;5130972;27;20002;-68
2023/03/25 01:06:14;;;;;;;;;;;9.90;99.90;;;;;;5125613;27;19911;-67
2023/03/25 01:08:41;;;;;;;;;;;9.90;99.90;;;;;;5124262;27;19922;-67
2023/03/25 01:11:15;;;;;;;;;;;9.90;99.90;;;;;;5123800;27;20019;-68
2023/03/25 01:13:40;;;;;;;;;;;9.80;99.90;;;;;;5117503;27;19919;-69
2023/03/25 01:16:07;;;;;;;;;;;9.80;99.90;;;;;;5121764;27;19912;-69
2023/03/25 01:18:36;;;;;;;;;;;9.80;99.90;;;;;;5129210;27;19950;-69
2023/03/25 01:21:06;;;;;;;;;;;9.80;99.90;;;;;;5120842;27;19926;-69
2023/03/25 01:23:32;;;;;;;;;;;9.70;99.90;;;;;;5104126;27;19916;-68
2023/03/25 01:25:57;;;;;;;;;;;9.70;99.90;;;;;;5126598;27;19919;-69
2023/03/25 01:28:23;;;;;;;;;;;9.70;99.90;;;;;;5121832;27;19964;-68
2023/03/25 01:30:49;;;;;;;;;;;9.60;99.90;;;;;;5117667;28;19916;-68
2023/03/25 01:33:15;;;;;;;;;;;9.60;99.90;;;;;;5119774;27;20010;-68
2023/03/25 01:35:41;;;;;;;;;;;9.50;99.90;;;;;;5105161;28;20322;-68
2023/03/25 01:38:06;;;;;;;;;;;9.40;99.90;;;;;;5105473;28;19919;-67
2023/03/25 01:40:33;;;;;;;;;;;9.40;99.90;;;;;;5127627;28;19918;-68
2023/03/25 01:42:58;;;;;;;;;;;9.40;99.90;;;;;;5123852;28;19960;-69
2023/03/25 01:45:33;;;;;;;;;;;9.30;99.90;;;;;;5127750;28;19919;-69
2023/03/25 01:48:09;;;;;;;;;;;9.30;99.90;;;;;;5127679;27;19917;-69
2023/03/25 01:50:36;;;;;;;;;;;9.20;99.90;;;;;;5127299;28;19939;-68
2023/03/25 01:53:03;;;;;;;;;;;9.20;99.90;;;;;;5127313;28;19912;-68
2023/03/25 01:55:32;;;;;;;;;;;9.20;99.90;;;;;;5119587;28;19915;-68
2023/03/25 01:57:58;;;;;;;;;;;9.30;99.90;;;;;;5122110;27;19920;-69
2023/03/25 02:00:25;;;;;;;;;;;9.30;99.90;;;;;;5121635;28;19923;-69
2023/03/25 02:02:51;;;;;;;;;;;9.30;99.90;;;;;;5121381;28;19936;-69
2023/03/25 02:05:17;;;;;;;;;;;9.30;99.90;;;;;;5120386;27;19912;-68
2023/03/25 02:07:45;;;;;;;;;;;9.20;99.90;;;;;;5121366;28;19950;-68
2023/03/25 02:10:11;;;;;;;;;;;9.20;99.90;;;;;;5126818;28;19988;-68
2023/03/25 02:12:36;;;;;;;;;;;9.20;99.90;;;;;;5130825;27;19911;-68
2023/03/25 02:15:04;;;;;;;;;;;9.20;99.90;;;;;;5100014;28;19912;-68
2023/03/25 02:17:50;;;;;;;;;;;9.20;99.90;;;;;;5125234;28;19941;-68
2023/03/25 02:20:22;;;;;;;;;;;9.10;99.90;;;;;;5116648;28;19911;-68
2023/03/25 02:23:00;;;;;;;;;;;9.10;99.90;;;;;;5123143;28;19912;-68
2023/03/25 02:25:34;;;;;;;;;;;9.10;99.90;;;;;;5121258;27;19916;-67
2023/03/25 02:28:09;;;;;;;;;;;9.10;99.90;;;;;;5125054;27;19911;-68
2023/03/25 02:30:53;;;;;;;;;;;9.10;99.90;;;;;;5125729;27;20014;-69
2023/03/25 02:33:27;;;;;;;;;;;9.20;99.90;;;;;;5127946;27;19912;-68
2023/03/25 02:35:56;;;;;;;;;;;9.20;99.90;;;;;;5128687;27;20310;-68
2023/03/25 02:38:31;;;;;;;;;;;9.20;99.90;;;;;;5104825;27;20398;-67
2023/03/25 02:41:00;;;;;;;;;;;9.10;99.90;;;;;;5129451;27;19915;-67
2023/03/25 02:43:47;;;;;;;;;;;9.00;99.90;;;;;;5130902;27;20409;-68
2023/03/25 02:46:15;;;;;;;;;;;8.90;99.90;;;;;;5102930;28;20462;-68
2023/03/25 02:48:53;;;;;;;;;;;9.00;99.90;;;;;;5125881;27;20308;-68
2023/03/25 02:51:26;;;;;;;;;;;8.90;99.90;;;;;;5120334;27;19919;-68
2023/03/25 02:53:55;;;;;;;;;;;8.90;99.90;;;;;;5128269;27;20252;-68
2023/03/25 02:56:22;;;;;;;;;;;8.80;99.90;;;;;;5125299;27;19927;-67
2023/03/25 02:58:49;;;;;;;;;;;8.90;99.90;;;;;;5110991;27;20384;-68
2023/03/25 03:01:14;;;;;;;;;;;8.80;99.90;;;;;;5131015;27;20391;-68
2023/03/25 03:03:40;;;;;;;;;;;8.80;99.90;;;;;;5128345;27;19994;-68
2023/03/25 03:06:06;;;;;;;;;;;8.90;99.90;;;;;;5132588;27;20006;-68
2023/03/25 03:08:42;;;;;;;;;;;8.80;99.90;;;;;;5119706;27;19919;-68
2023/03/25 03:11:08;;;;;;;;;;;8.80;99.90;;;;;;5121574;27;20370;-67
2023/03/25 03:13:52;;;;;;;;;;;8.80;99.90;;;;;;5131521;27;19911;-68
2023/03/25 03:16:44;;;;;;;;;;;8.80;99.90;;;;;;5116605;27;19916;-67
2023/03/25 03:19:30;;;;;;;;;;;8.90;99.90;;;;;;5125623;27;19912;-67
2023/03/25 03:21:56;;;;;;;;;;;8.90;99.90;;;;;;5130348;27;19974;-68
2023/03/25 03:24:21;;;;;;;;;;;8.90;99.90;;;;;;5122407;27;20351;-67
2023/03/25 03:26:52;;;;;;;;;;;8.90;99.90;;;;;;5124810;27;20006;-67
2023/03/25 03:29:17;;;;;;;;;;;8.80;99.90;;;;;;5120203;27;19962;-67
2023/03/25 03:31:47;;;;;;;;;;;8.90;99.90;;;;;;5125668;27;19958;-67
2023/03/25 03:34:18;;;;;;;;;;;8.80;99.90;;;;;;5117756;27;19915;-68
2023/03/25 03:36:45;;;;;;;;;;;8.80;99.90;;;;;;5121980;27;19915;-68
2023/03/25 03:39:20;;;;;;;;;;;8.90;99.90;;;;;;5122800;27;19911;-66
2023/03/25 03:41:48;;;;;;;;;;;8.80;99.90;;;;;;5118996;27;19916;-68
2023/03/25 03:44:15;;;;;;;;;;;8.90;99.90;;;;;;5126038;27;19947;-66
2023/03/25 03:46:44;;;;;;;;;;;8.90;99.90;;;;;;5133508;27;19919;-67
2023/03/25 03:49:14;;;;;;;;;;;8.90;99.90;;;;;;5111825;27;20014;-68
2023/03/25 03:51:47;;;;;;;;;;;9.00;99.90;;;;;;5135171;27;20392;-68
2023/03/25 03:54:17;;;;;;;;;;;8.90;99.90;;;;;;5130647;27;19911;-67
2023/03/25 03:56:45;;;;;;;;;;;8.80;99.90;;;;;;5132107;27;19968;-67
2023/03/25 03:59:22;;;;;;;;;;;8.90;99.90;;;;;;5139329;27;19915;-67
2023/03/25 04:01:52;;;;;;;;;;;9.00;99.90;;;;;;5106736;27;20336;-68
2023/03/25 04:04:20;;;;;;;;;;;9.00;99.90;;;;;;5126895;27;19920;-67
2023/03/25 04:06:56;;;;;;;;;;;9.00;99.90;;;;;;5132275;27;19916;-67
2023/03/25 04:09:25;;;;;;;;;;;8.90;99.90;;;;;;5121340;27;19919;-67
2023/03/25 04:11:58;;;;;;;;;;;8.90;99.90;;;;;;5130591;27;19912;-67
2023/03/25 04:14:24;;;;;;;;;;;8.90;99.90;;;;;;5132816;27;19911;-67
2023/03/25 04:16:51;;;;;;;;;;;9.00;99.90;;;;;;5142799;27;19923;-67
2023/03/25 04:19:18;;;;;;;;;;;9.00;99.90;;;;;;5135059;27;19911;-67
2023/03/25 04:21:44;;;;;;;;;;;9.00;99.90;;;;;;5138541;27;19922;-68
2023/03/25 04:24:10;;;;;;;;;;;8.90;99.90;;;;;;5143867;27;19911;-67
2023/03/25 04:26:37;;;;;;;;;;;9.00;99.90;;;;;;5133139;27;19943;-67
2023/03/25 04:29:03;;;;;;;;;;;9.00;99.90;;;;;;5138932;27;20314;-67
2023/03/25 04:31:30;;;;;;;;;;;9.00;99.90;;;;;;5138117;27;19912;-68
2023/03/25 04:33:56;;;;;;;;;;;9.00;99.90;;;;;;5136011;27;19922;-68
2023/03/25 04:36:22;;;;;;;;;;;9.00;99.90;;;;;;5133537;27;19915;-68
2023/03/25 04:38:48;;;;;;;;;;;9.00;99.90;;;;;;5137107;27;20488;-68
2023/03/25 04:41:14;;;;;;;;;;;9.00;99.90;;;;;;5133232;27;19912;-68
2023/03/25 04:43:44;;;;;;;;;;;9.00;99.90;;;;;;5137386;27;20014;-68
2023/03/25 04:46:13;;;;;;;;;;;9.10;99.90;;;;;;5122167;27;19938;-67
2023/03/25 04:48:43;;;;;;;;;;;9.10;99.90;;;;;;5128394;27;19953;-68
2023/03/25 04:51:11;;;;;;;;;;;9.20;99.90;;;;;;5128441;27;19911;-67
2023/03/25 04:53:37;;;;;;;;;;;9.10;99.90;;;;;;5126613;27;20486;-67
2023/03/25 04:56:04;;;;;;;;;;;9.10;99.90;;;;;;5123256;27;19972;-67
2023/03/25 04:58:29;;;;;;;;;;;9.10;99.90;;;;;;5122864;27;20445;-66
2023/03/25 05:00:55;;;;;;;;;;;9.10;99.90;;;;;;5112785;27;20003;-67
2023/03/25 05:03:23;;;;;;;;;;;9.10;99.90;;;;;;5128252;27;20002;-67
2023/03/25 05:05:50;;;;;;;;;;;9.00;99.90;;;;;;5118549;27;20430;-67
2023/03/25 05:08:17;;;;;;;;;;;9.00;99.90;;;;;;5116315;27;19958;-67
2023/03/25 05:10:43;;;;;;;;;;;9.00;99.90;;;;;;5122708;27;19998;-68
2023/03/25 05:13:08;;;;;;;;;;;8.90;99.90;;;;;;5114743;27;20358;-67
2023/03/25 05:15:38;;;;;;;;;;;9.00;99.90;;;;;;5127087;27;20013;-67
2023/03/25 05:18:08;;;;;;;;;;;9.00;99.90;;;;;;5128381;27;20401;-67
2023/03/25 05:20:36;;;;;;;;;;;9.00;99.90;;;;;;5123720;27;19964;-68
2023/03/25 05:23:03;;;;;;;;;;;9.00;99.90;;;;;;5131454;27;19919;-68
2023/03/25 05:25:33;;;;;;;;;;;9.00;99.90;;;;;;5123465;27;19911;-68
2023/03/25 05:28:04;;;;;;;;;;;9.10;99.90;;;;;;5119666;27;20110;-68
2023/03/25 05:30:38;;;;;;;;;;;9.10;99.90;;;;;;5122249;27;20040;-68
2023/03/25 05:33:10;;;;;;;;;;;9.10;99.90;;;;;;5123058;27;19918;-67
2023/03/25 05:35:36;;;;;;;;;;;9.00;99.90;;;;;;5120367;27;19922;-68
2023/03/25 05:38:03;;;;;;;;;;;9.00;99.90;;;;;;5121954;27;19919;-68
2023/03/25 05:40:29;;;;;;;;;;;9.00;99.90;;;;;;5128419;27;19995;-68
2023/03/25 05:42:55;;;;;;;;;;;8.90;99.90;;;;;;5120382;28;19958;-68
2023/03/25 05:45:21;;;;;;;;;;;9.00;99.90;;;;;;5117583;28;19946;-68
2023/03/25 05:47:47;;;;;;;;;;;9.20;99.90;;;;;;5124099;28;20407;-68
2023/03/25 05:50:15;;;;;;;;;;;9.20;99.90;;;;;;5128555;28;19953;-68
2023/03/25 05:52:41;;;;;;;;;;;9.10;99.90;;;;;;5121345;27;19965;-68
2023/03/25 05:55:14;;;;;;;;;;;9.20;99.90;;;;;;5126351;27;20001;-68
2023/03/25 05:57:40;;;;;;;;;;;9.20;99.90;;;;;;5132587;27;19967;-68
2023/03/25 06:00:07;;;;;;;;;;;9.20;99.90;;;;;;5135401;27;19919;-68
2023/03/25 06:02:34;;;;;;;;;;;9.30;99.90;;;;;;5133004;27;19964;-68
2023/03/25 06:04:59;;;;;;;;;;;9.30;99.90;;;;;;5134051;27;19912;-68
2023/03/25 06:07:25;;;;;;;;;;;9.40;99.90;;;;;;5136775;27;19911;-68
2023/03/25 06:09:53;;;;;;;;;;;9.40;99.90;;;;;;5133770;27;19911;-68
2023/03/25 06:12:20;;;;;;;;;;;9.50;99.90;;;;;;5123181;27;19965;-68
2023/03/25 06:14:46;;;;;;;;;;;9.60;99.90;;;;;;5125188;27;19918;-68
2023/03/25 06:17:12;;;;;;;;;;;9.60;99.90;;;;;;5130602;27;19996;-68
2023/03/25 06:19:41;;;;;;;;;;;9.60;99.90;;;;;;5125927;27;19912;-67
2023/03/25 06:22:10;;;;;;;;;;;9.60;99.90;;;;;;5128048;27;19915;-67
2023/03/25 06:24:36;;;;;;;;;;;9.60;99.90;;;;;;5124019;27;19932;-67
2023/03/25 06:27:02;;;;;;;;;;;9.70;99.90;;;;;;5124970;27;20351;-67
2023/03/25 06:29:28;;;;;;;;;;;9.70;99.90;;;;;;5135297;27;19911;-67
2023/03/25 06:31:53;;;;;;;;;;;9.70;99.90;;;;;;5134757;27;20263;-68
2023/03/25 06:34:19;;;;;;;;;;;9.80;99.90;;;;;;5124202;27;19911;-67
2023/03/25 06:36:48;;;;;;;;;;;9.80;99.90;;;;;;5125771;27;19927;-68
2023/03/25 06:39:15;;;;;;;;;;;9.80;99.90;;;;;;5114617;27;20425;-67
2023/03/25 06:41:41;;;;;;;;;;;9.80;99.90;;;;;;5131785;27;19912;-68
2023/03/25 06:44:07;;;;;;;;;;;9.80;99.90;;;;;;5129447;27;20273;-68
2023/03/25 06:46:32;;;;;;;;;;;9.90;99.90;;;;;;5130013;27;20383;-67
2023/03/25 06:48:58;;;;;;;;;;;9.90;99.90;;;;;;5130622;27;20075;-68
2023/03/25 06:51:23;;;;;;;;;;;10.00;99.90;;;;;;5110002;27;19911;-68
2023/03/25 06:53:49;;;;;;;;;;;10.00;99.90;;;;;;5127748;27;19946;-67
2023/03/25 06:56:15;;;;;;;;;;;10.00;99.90;;;;;;5120440;27;20572;-68
2023/03/25 06:58:40;;;;;;;;;;;10.00;99.90;;;;;;5130047;27;19959;-67
2023/03/25 07:01:06;;;;;;;;;;;10.00;99.90;;;;;;5126803;27;21641;-68
2023/03/25 07:03:32;;;;;;;;;;;10.10;99.90;;;;;;5127903;27;19990;-67
2023/03/25 07:05:58;;;;;;;;;;;10.10;99.90;;;;;;5128720;27;20345;-67
2023/03/25 07:08:24;;;;;;;;;;;10.10;99.90;;;;;;5111517;27;20270;-68
2023/03/25 07:10:49;;;;;;;;;;;10.10;99.90;;;;;;5124361;27;19920;-68
2023/03/25 07:13:15;;;;;;;;;;;10.10;99.90;;;;;;5127658;27;20334;-68
2023/03/25 07:15:40;;;;;;;;;;;10.10;99.90;;;;;;5127918;27;19916;-68
2023/03/25 07:18:06;;;;;;;;;;;10.20;99.90;;;;;;5125429;27;19923;-67
2023/03/25 07:20:32;;;;;;;;;;;10.20;99.90;;;;;;5130128;27;19926;-68
2023/03/25 07:22:57;;;;;;;;;;;10.30;99.90;;;;;;5125151;27;20275;-67
2023/03/25 07:25:23;;;;;;;;;;;10.40;99.90;;;;;;5129788;27;19919;-68
2023/03/25 07:27:48;;;;;;;;;;;10.30;99.90;;;;;;5129159;27;19964;-68
2023/03/25 07:30:14;;;;;;;;;;;10.30;99.90;;;;;;5125212;27;19911;-68
2023/03/25 07:32:40;;;;;;;;;;;10.40;99.90;;;;;;5127746;27;19911;-68
2023/03/25 07:35:07;;;;;;;;;;;10.40;99.90;;;;;;5123776;27;19913;-68
2023/03/25 07:37:33;;;;;;;;;;;10.50;99.90;;;;;;5129690;27;19969;-68
2023/03/25 07:39:59;;;;;;;;;;;10.50;99.90;;;;;;5127384;27;19948;-68
2023/03/25 07:42:24;;;;;;;;;;;10.50;99.90;;;;;;5125722;27;19962;-68
2023/03/25 07:44:50;;;;;;;;;;;10.50;99.90;;;;;;5128625;27;20409;-68
2023/03/25 07:47:16;;;;;;;;;;;10.50;99.90;;;;;;5127027;27;19915;-68
2023/03/25 07:49:42;;;;;;;;;;;10.50;99.90;;;;;;5127491;27;19918;-69
2023/03/25 07:52:08;;;;;;;;;;;10.60;99.90;;;;;;5121601;27;21287;-68
2023/03/25 07:54:34;;;;;;;;;;;10.60;99.90;;;;;;5129380;27;19911;-68
2023/03/25 07:57:00;;;;;;;;;;;10.50;99.90;;;;;;5123027;27;20042;-69
2023/03/25 07:59:26;;;;;;;;;;;10.50;99.90;;;;;;5127636;27;20344;-68
2023/03/25 08:01:51;;;;;;;;;;;10.50;99.90;;;;;;5125979;27;20010;-68
2023/03/25 08:04:17;;;;;;;;;;;10.70;99.90;;;;;;5123234;27;19911;-69
2023/03/25 08:06:43;;;;;;;;;;;10.70;99.90;;;;;;5130010;27;19911;-68
2023/03/25 08:09:08;;;;;;;;;;;10.80;99.90;;;;;;5122141;27;19919;-67
2023/03/25 08:11:34;;;;;;;;;;;10.80;99.90;;;;;;5121421;27;19991;-68
2023/03/25 08:14:00;;;;;;;;;;;10.90;99.90;;;;;;5124883;27;19912;-67
2023/03/25 08:16:25;;;;;;;;;;;10.90;99.90;;;;;;5131805;27;19911;-68
2023/03/25 08:18:54;;;;;;;;;;;10.80;99.90;;;;;;5118435;27;19916;-67
2023/03/25 08:21:26;;;;;;;;;;;10.80;99.90;;;;;;5121074;27;19990;-68
2023/03/25 08:24:01;;;;;;;;;;;11.00;99.90;;;;;;5122208;27;19996;-68
2023/03/25 08:26:30;;;;;;;;;;;11.00;99.90;;;;;;5119106;27;20293;-68
2023/03/25 08:28:56;;;;;;;;;;;11.00;99.90;;;;;;5121476;27;19915;-69
2023/03/25 08:31:23;;;;;;;;;;;10.90;99.90;;;;;;5123173;27;19920;-68
2023/03/25 08:33:48;;;;;;;;;;;11.00;99.90;;;;;;5124476;27;19918;-68
2023/03/25 08:36:18;;;;;;;;;;;11.20;99.90;;;;;;5118954;27;19911;-67
2023/03/25 08:38:47;;;;;;;;;;;11.20;99.90;;;;;;5124176;27;19972;-67
2023/03/25 08:41:13;;;;;;;;;;;11.20;99.90;;;;;;5128567;27;20005;-67
2023/03/25 08:43:38;;;;;;;;;;;11.30;99.90;;;;;;5119571;27;20022;-68
2023/03/25 08:46:04;;;;;;;;;;;11.40;99.90;;;;;;5126565;27;20006;-67
2023/03/25 08:48:29;;;;;;;;;;;11.50;99.90;;;;;;5124110;27;20003;-66
2023/03/25 08:50:55;;;;;;;;;;;11.60;99.90;;;;;;5121519;27;19912;-67
2023/03/25 08:53:21;;;;;;;;;;;11.60;99.90;;;;;;5121903;27;20325;-68
2023/03/25 08:55:50;;;;;;;;;;;11.50;99.90;;;;;;5122732;27;20275;-68
2023/03/25 08:58:15;;;;;;;;;;;11.50;99.90;;;;;;5115509;27;20402;-70
2023/03/25 09:00:41;;;;;;;;;;;11.80;99.90;;;;;;5117400;27;20314;-69
2023/03/25 09:03:07;;;;;;;;;;;11.70;99.90;;;;;;5114645;27;19919;-68
2023/03/25 09:05:32;;;;;;;;;;;11.60;99.90;;;;;;5116367;27;19922;-68
2023/03/25 09:07:58;;;;;;;;;;;11.40;99.90;;;;;;5115058;27;19918;-68
2023/03/25 09:10:23;;;;;;;;;;;11.30;99.90;;;;;;5116298;27;19911;-68
2023/03/25 09:12:50;;;;;;;;;;;11.30;99.90;;;;;;5120903;27;19912;-69
2023/03/25 09:15:16;;;;;;;;;;;11.40;99.90;;;;;;5119612;27;20335;-68
2023/03/25 09:17:41;;;;;;;;;;;11.40;99.90;;;;;;5120581;27;20024;-68
2023/03/25 09:20:07;;;;;;;;;;;11.50;99.90;;;;;;5122220;27;20286;-69
2023/03/25 09:22:34;;;;;;;;;;;11.80;99.90;;;;;;5116731;27;20377;-69
2023/03/25 09:24:59;;;;;;;;;;;12.00;99.90;;;;;;5117568;27;19949;-66
2023/03/25 09:27:25;;;;;;;;;;;12.20;99.90;;;;;;5121077;27;19951;-68
2023/03/25 09:29:50;;;;;;;;;;;12.10;99.90;;;;;;5114496;27;19912;-67
2023/03/25 09:32:17;;;;;;;;;;;12.20;99.90;;;;;;5114399;27;19960;-68
2023/03/25 09:34:43;;;;;;;;;;;12.40;99.90;;;;;;5113974;27;19920;-68
2023/03/25 09:37:09;;;;;;;;;;;12.30;99.90;;;;;;5115996;27;20026;-68
2023/03/25 09:39:35;;;;;;;;;;;12.20;99.90;;;;;;5120531;27;19919;-69
2023/03/25 09:42:01;;;;;;;;;;;12.40;99.90;;;;;;5115610;27;19964;-68
2023/03/25 09:44:29;;;;;;;;;;;12.50;99.90;;;;;;5122646;27;19923;-68
2023/03/25 09:46:57;;;;;;;;;;;12.70;99.90;;;;;;5119963;27;20005;-68
2023/03/25 09:49:24;;;;;;;;;;;12.50;99.90;;;;;;5100514;27;19912;-68
2023/03/25 09:51:51;;;;;;;;;;;12.50;99.90;;;;;;5118349;27;19912;-68
2023/03/25 09:54:28;;;;;;;;;;;12.50;99.90;;;;;;5122432;28;19915;-68
2023/03/25 09:56:56;;;;;;;;;;;12.40;99.90;;;;;;5119682;28;19927;-67
2023/03/25 09:59:24;;;;;;;;;;;12.50;99.90;;;;;;5121717;28;19919;-68
2023/03/25 10:01:53;;;;;;;;;;;12.60;99.90;;;;;;5119488;28;19919;-67
2023/03/25 10:04:37;;;;;;;;;;;12.80;99.90;;;;;;5120881;28;19911;-67
2023/03/25 10:07:03;;;;;;;;;;;12.80;99.90;;;;;;5116450;28;19969;-66
2023/03/25 10:09:43;;;;;;;;;;;12.80;99.90;;;;;;5122782;28;20316;-67
2023/03/25 10:12:27;;;;;;;;;;;12.90;99.90;;;;;;5108508;28;20453;-66
2023/03/25 10:15:11;;;;;;;;;;;12.90;99.90;;;;;;5117181;27;20017;-65
2023/03/25 10:17:37;;;;;;;;;;;12.80;99.90;;;;;;5119273;27;19962;-66
2023/03/25 10:20:04;;;;;;;;;;;12.80;99.90;;;;;;5115064;27;19951;-66
2023/03/25 10:22:29;;;;;;;;;;;12.60;99.90;;;;;;5120153;27;19964;-65
2023/03/25 10:25:03;;;;;;;;;;;12.70;99.90;;;;;;5119088;27;20805;-66
2023/03/25 10:27:32;;;;;;;;;;;12.60;99.90;;;;;;5112687;27;19995;-66
2023/03/25 10:30:18;;;;;;;;;;;12.50;99.90;;;;;;5114128;27;20434;-66
2023/03/25 10:32:55;;;;;;;;;;;13.00;99.90;;;;;;5119911;27;19919;-66
2023/03/25 10:35:24;;;;;;;;;;;12.90;99.90;;;;;;5113931;27;19920;-66
2023/03/25 10:37:51;;;;;;;;;;;12.70;99.90;;;;;;5116291;27;20002;-66
2023/03/25 10:40:18;;;;;;;;;;;12.80;99.90;;;;;;5113572;27;19915;-66
2023/03/25 10:42:57;;;;;;;;;;;13.30;99.90;;;;;;5110166;27;19919;-65
2023/03/25 10:45:23;;;;;;;;;;;13.60;99.90;;;;;;5117967;27;20291;-65
2023/03/25 10:47:51;;;;;;;;;;;13.30;99.90;;;;;;5103293;27;19915;-67
2023/03/25 10:50:18;;;;;;;;;;;13.10;99.90;;;;;;5118166;27;20948;-65
2023/03/25 10:52:44;;;;;;;;;;;13.00;99.90;;;;;;5124864;27;20375;-66
2023/03/25 10:55:19;;;;;;;;;;;13.10;99.90;;;;;;5122932;27;20433;-65
2023/03/25 10:57:45;;;;;;;;;;;13.10;99.90;;;;;;5116139;27;19927;-65
2023/03/25 11:00:18;;;;;;;;;;;13.20;99.90;;;;;;5116808;27;19965;-66
2023/03/25 11:02:44;;;;;;;;;;;13.50;99.90;;;;;;5120118;27;19912;-64
2023/03/25 11:05:11;;;;;;;;;;;13.10;99.90;;;;;;5123315;27;19927;-66
2023/03/25 11:07:42;;;;;;;;;;;13.10;99.90;;;;;;5121510;27;20358;-66
2023/03/25 11:10:08;;;;;;;;;;;13.10;99.90;;;;;;5126340;27;19911;-65
2023/03/25 11:12:33;;;;;;;;;;;12.90;99.90;;;;;;5117801;27;19912;-66
2023/03/25 11:15:00;;;;;;;;;;;13.40;99.90;;;;;;5131589;27;20275;-66
2023/03/25 11:17:26;;;;;;;;;;;13.40;99.90;;;;;;5126179;27;20053;-66
2023/03/25 11:19:54;;;;;;;;;;;13.30;99.90;;;;;;5125831;27;20003;-67
2023/03/25 11:22:30;;;;;;;;;;;13.20;99.90;;;;;;5119885;27;19912;-66
2023/03/25 11:24:58;;;;;;;;;;;13.00;99.90;;;;;;5125620;27;19912;-68
2023/03/25 11:27:25;;;;;;;;;;;13.40;99.90;;;;;;5094954;27;20003;-67
2023/03/25 11:30:02;;;;;;;;;;;13.60;99.90;;;;;;5128245;27;19956;-67
2023/03/25 11:32:32;;;;;;;;;;;13.10;99.90;;;;;;5131182;27;19950;-68
2023/03/25 11:35:00;;;;;;;;;;;12.90;99.90;;;;;;5125119;27;19911;-68
2023/03/25 11:37:30;;;;;;;;;;;13.20;99.90;;;;;;5124060;27;19941;-67
2023/03/25 11:40:02;;;;;;;;;;;13.20;99.90;;;;;;5112669;27;20362;-66
2023/03/25 11:42:32;;;;;;;;;;;13.00;99.90;;;;;;5130589;27;20007;-68
2023/03/25 11:44:58;;;;;;;;;;;13.40;99.90;;;;;;5104836;27;20382;-68
2023/03/25 11:47:25;;;;;;;;;;;13.70;99.90;;;;;;5129020;27;19923;-67
2023/03/25 11:49:52;;;;;;;;;;;14.60;99.90;;;;;;5119423;27;19916;-67
2023/03/25 11:52:20;;;;;;;;;;;15.00;99.90;;;;;;5128515;27;20378;-67
2023/03/25 11:54:46;;;;;;;;;;;14.60;99.90;;;;;;5118531;27;19912;-67
2023/03/25 11:57:15;;;;;;;;;;;14.50;99.90;;;;;;5120029;27;19923;-67
2023/03/25 11:59:45;;;;;;;;;;;14.30;99.90;;;;;;5119751;27;19912;-67
2023/03/25 12:02:20;;;;;;;;;;;14.20;99.90;;;;;;5125377;27;19915;-66
2023/03/25 12:04:55;;;;;;;;;;;14.50;99.90;;;;;;5130548;27;19912;-67
2023/03/25 12:07:23;;;;;;;;;;;14.10;99.90;;;;;;5116724;27;19912;-66
2023/03/25 12:10:02;;;;;;;;;;;13.90;99.90;;;;;;5116473;27;19919;-67
2023/03/25 12:12:28;;;;;;;;;;;14.30;99.90;;;;;;5129269;27;20446;-68
2023/03/25 12:15:00;;;;;;;;;;;14.50;99.90;;;;;;5124069;27;20002;-68
2023/03/25 12:17:28;;;;;;;;;;;15.20;99.90;;;;;;5120037;27;19951;-67
2023/03/25 12:20:10;;;;;;;;;;;15.50;99.90;;;;;;5123010;27;19911;-67
2023/03/25 12:22:42;;;;;;;;;;;15.10;99.90;;;;;;5120352;27;19912;-61
2023/03/25 12:25:16;;;;;;;;;;;15.50;99.90;;;;;;5131061;27;19919;-60
2023/03/25 12:27:41;;;;;;;;;;;14.90;99.90;;;;;;5126132;27;20010;-60
2023/03/25 12:30:22;;;;;;;;;;;14.90;99.90;;;;;;5120051;27;20366;-60
2023/03/25 12:32:51;;;;;;;;;;;15.60;99.90;;;;;;5121490;27;19942;-59
2023/03/25 12:35:29;;;;;;;;;;;16.10;99.90;;;;;;5116288;27;20006;-60
2023/03/25 12:41:07;;;;;;;;;;;15.10;99.90;;;;;;5116014;27;19918;-60
2023/03/25 12:43:51;;;;;;;;;;;13.80;99.90;;;;;;5118727;27;19930;-60
2023/03/25 12:46:28;;;;;;;;;;;13.30;99.90;;;;;;5110372;27;19972;-61
2023/03/25 12:52:20;;;;;;;;;;;13.90;99.90;;;;;;5109206;27;19972;-60
2023/03/25 12:54:49;;;;;;;;;;;14.10;99.90;;;;;;5103856;27;19964;-60
2023/03/25 12:57:37;;;;;;;;;;;14.50;99.90;;;;;;5116539;27;19927;-59
2023/03/25 13:00:21;;;;;;;;;;;14.40;99.90;;;;;;5113292;27;20337;-59
2023/03/25 13:03:11;;;;;;;;;;;14.70;99.90;;;;;;5124363;27;19911;-60
2023/03/25 13:05:40;;;;;;;;;;;14.40;99.90;;;;;;5108376;27;19962;-60
2023/03/25 13:08:09;;;;;;;;;;;14.10;99.90;;;;;;5124508;27;19928;-59
2023/03/25 13:10:35;;;;;;;;;;;14.10;99.90;;;;;;5113419;27;19919;-61
2023/03/25 13:13:12;;;;;;;;;;;14.10;99.90;;;;;;5111610;27;20314;-61
2023/03/25 13:15:40;;;;;;;;;;;14.00;99.90;;;;;;5122989;27;19922;-60
2023/03/25 13:18:12;;;;;;;;;;;14.10;99.90;;;;;;5122990;27;19923;-60
2023/03/25 13:20:43;;;;;;;;;;;13.70;99.90;;;;;;5117611;27;19915;-60
2023/03/25 13:23:11;;;;;;;;;;;13.50;99.90;;;;;;5122756;27;19919;-63
2023/03/25 13:25:46;;;;;;;;;;;13.60;99.90;;;;;;5120554;27;19919;-64
2023/03/25 13:28:14;;;;;;;;;;;14.00;99.90;;;;;;5116813;27;19915;-64
2023/03/25 13:30:42;;;;;;;;;;;14.50;99.90;;;;;;5122898;27;19915;-63
2023/03/25 13:33:26;;;;;;;;;;;14.60;99.90;;;;;;5129613;27;19912;-64
2023/03/25 13:36:00;;;;;;;;;;;14.80;99.90;;;;;;5116818;27;19911;-64
2023/03/25 13:38:26;;;;;;;;;;;15.50;99.90;;;;;;5115852;27;19926;-63
2023/03/25 13:40:56;;;;;;;;;;;15.60;99.90;;;;;;5122471;27;19915;-64
2023/03/25 13:43:24;;;;;;;;;;;16.20;99.90;;;;;;5123854;27;20101;-64
2023/03/25 13:46:04;;;;;;;;;;;16.70;99.90;;;;;;5116863;28;19922;-63
2023/03/25 13:48:33;;;;;;;;;;;15.70;99.90;;;;;;5113466;27;19927;-62
2023/03/25 13:51:01;;;;;;;;;;;14.90;99.90;;;;;;5111162;27;19919;-62
2023/03/25 13:53:50;;;;;;;;;;;14.50;99.90;;;;;;5121383;28;19912;-63
2023/03/25 13:56:36;;;;;;;;;;;14.80;99.90;;;;;;5120379;28;20270;-63
2023/03/25 13:59:01;;;;;;;;;;;15.10;99.90;;;;;;5084500;28;19943;-62
2023/03/25 14:01:45;;;;;;;;;;;15.00;99.90;;;;;;5119796;28;20347;-63
2023/03/25 14:04:11;;;;;;;;;;;15.10;99.90;;;;;;5117255;28;19918;-63
2023/03/25 14:06:37;;;;;;;;;;;14.50;99.90;;;;;;5113888;27;19919;-62
2023/03/25 14:09:02;;;;;;;;;;;14.20;99.90;;;;;;5112853;28;19912;-62
2023/03/25 14:11:33;;;;;;;;;;;14.40;99.90;;;;;;5124360;27;20017;-63
2023/03/25 14:14:04;;;;;;;;;;;14.20;99.90;;;;;;5120420;28;19911;-63
2023/03/25 14:16:33;;;;;;;;;;;14.40;99.90;;;;;;5117578;27;19912;-63
2023/03/25 14:19:02;;;;;;;;;;;15.20;99.90;;;;;;5120289;27;19922;-61
2023/03/25 14:21:37;;;;;;;;;;;15.90;99.90;;;;;;5122969;28;19911;-64
2023/03/25 14:24:10;;;;;;;;;;;16.60;99.90;;;;;;5118989;27;20426;-64
2023/03/25 14:26:40;;;;;;;;;;;17.10;99.90;;;;;;5121078;27;20042;-63
2023/03/25 14:29:15;;;;;;;;;;;16.90;99.90;;;;;;5129782;27;20345;-63
2023/03/25 14:31:57;;;;;;;;;;;15.80;99.90;;;;;;5123262;27;19915;-63
2023/03/25 14:34:24;;;;;;;;;;;15.80;99.90;;;;;;5121589;27;19912;-63
2023/03/25 14:37:10;;;;;;;;;;;15.20;99.90;;;;;;5123444;27;19922;-63
2023/03/25 14:39:37;;;;;;;;;;;14.20;99.90;;;;;;5130687;27;20320;-63
2023/03/25 14:42:10;;;;;;;;;;;14.00;99.90;;;;;;5125399;27;19957;-62